EDT,Max TemperatureF,Mean TemperatureF,Min TemperatureF,Max Dew PointF,MeanDew PointF,Min DewpointF,Max Humidity, Mean Humidity, Min Humidity, Max Sea Level PressureIn, Mean Sea Level PressureIn, Min Sea Level PressureIn, Max VisibilityMiles, Mean VisibilityMiles, Min VisibilityMiles, Max Wind SpeedMPH, Mean Wind SpeedMPH, Max Gust SpeedMPH,PrecipitationIn, CloudCover, Events, WindDirDegrees
2012-10-1,66,55,44,56,47,43,100,76,52,29.95,29.91,29.80,10,4,0,14,4,18,0.02,4,Fog-Rain,58
2012-10-2,81,71,60,70,63,55,100,81,62,29.92,29.81,29.77,10,8,1,14,3,18,0.25,6,Rain,98
2012-10-3,75,68,60,66,61,55,100,77,53,30.18,30.07,29.92,10,10,7,15,3,22,0.00,5,,218
2012-10-4,75,67,58,58,56,53,100,75,49,30.25,30.21,30.18,10,9,6,14,4,20,0.00,2,,215
2012-10-5,77,66,55,58,55,53,93,70,46,30.19,30.09,29.92,10,10,9,16,5,20,0.00,1,,191
2012-10-6,65,56,46,55,43,32,93,64,35,30.14,30.04,29.89,10,10,5,21,6,28,0.07,5,Rain,288
2012-10-7,51,46,41,41,38,34,89,71,52,30.23,30.16,30.10,10,10,7,12,3,17,T,8,Rain,328
2012-10-8,50,43,36,41,38,36,100,83,66,30.30,30.25,30.22,10,7,0,12,1,16,0.00,5,Fog,152
2012-10-9,60,48,35,43,39,35,100,77,53,30.26,30.19,30.06,10,5,0,12,2,18,0.00,3,Fog,177
2012-10-10,59,49,38,46,38,31,96,66,36,30.27,30.07,30.01,10,10,6,21,8,28,0.00,3,,237
2012-10-11,60,45,29,36,31,28,92,62,32,30.37,30.29,30.20,10,10,6,10,2,14,0.00,0,,198
2012-10-12,58,46,33,39,35,31,92,66,39,30.43,30.35,30.24,10,10,8,13,2,18,0.00,1,,11
2012-10-13,71,52,32,47,37,30,100,69,38,30.41,30.33,30.14,10,5,0,13,5,17,0.00,0,Fog,163
2012-10-14,77,67,57,55,51,47,67,55,43,30.12,29.98,29.79,10,10,10,24,10,39,T,3,Rain,183
2012-10-15,70,57,44,59,50,42,90,76,61,29.97,29.85,29.75,10,9,2,18,6,29,T,6,Rain,263
2012-10-16,61,49,36,43,39,36,100,71,42,30.06,29.99,29.91,10,7,2,9,1,14,0.00,1,,201
2012-10-17,74,57,39,50,44,37,96,70,43,29.94,29.86,29.73,10,10,6,12,5,18,0.00,2,,151
2012-10-18,64,59,53,51,46,41,86,67,48,29.83,29.73,29.67,10,10,9,14,8,32,0.05,6,Rain,153
2012-10-19,65,57,48,44,40,34,80,57,34,29.78,29.72,29.63,10,10,10,22,8,32,0.02,5,Rain,223
2012-10-20,58,53,47,45,42,41,80,66,51,30.03,29.87,29.77,10,9,2,23,7,32,0.05,5,Rain,237
2012-10-21,61,49,36,44,40,34,100,71,42,30.20,30.15,30.03,10,9,5,10,2,15,0.00,1,,221
2012-10-22,76,57,37,51,43,35,96,67,38,30.23,30.18,30.11,10,7,0,12,2,16,0.00,1,Fog,193
2012-10-23,78,67,56,52,50,46,77,55,33,30.13,30.09,30.05,10,10,10,14,5,20,T,2,,193
2012-10-24,79,67,54,53,51,48,80,58,35,30.19,30.13,30.09,10,10,5,13,3,17,0.00,3,,200
2012-10-25,81,65,48,50,48,45,93,62,30,30.14,30.08,30.03,10,10,5,10,2,15,0.00,0,,176
2012-10-26,79,67,54,55,51,46,77,60,43,30.11,30.05,29.99,10,10,9,16,6,24,0.00,4,,207
2012-10-27,55,51,47,49,46,44,93,85,77,30.06,30.03,29.98,10,8,2,12,6,18,0.21,8,Rain,340
2012-10-28,47,43,39,45,42,37,96,91,86,30.03,29.96,29.89,10,5,2,15,7,23,0.90,8,Rain,341
2012-10-29,42,40,37,39,38,35,93,88,82,29.92,29.75,29.42,10,7,5,25,12,36,0.87,8,Rain,306
2012-10-30,38,36,34,36,34,32,96,91,85,29.55,29.37,29.28,10,6,2,28,13,40,0.65,8,Rain-Snow,266
2012-10-31,43,40,37,39,37,35,92,87,82,29.79,29.68,29.53,10,7,2,16,8,22,0.22,8,Rain,252